Time;durP1;ratioP1;P1;durP2;ratioP2;P2;SDS_P1;SDS_P2;PMS_P1;PMS_P2;Temp;Humidity;BMP_temperature;BMP_pressure;BME280_temperature;BME280_humidity;BME280_pressure;Samples;Min_cycle;Max_cycle;Signal;HPM_P1;HPM_P2
2021/04/04 00:00:21;;;;;;;;;;;;;;;-1.17;91.52;94281.69;5095480;28;19974;-76
2021/04/04 00:02:47;;;;;;;;;;;;;;;-1.27;92.70;94286.69;5095731;28;19924;-76
2021/04/04 00:05:14;;;;;;;;;;;;;;;-1.29;92.18;94275.75;5095586;28;20374;-76
2021/04/04 00:07:40;;;;;;;;;;;;;;;-1.29;92.65;94274.97;5095455;28;19920;-77
2021/04/04 00:10:07;;;;;;;;;;;;;;;-1.38;93.24;94268.75;5095422;28;20031;-77
2021/04/04 00:12:33;;;;;;;;;;;;;;;-1.42;92.88;94268.19;5094755;28;19985;-77
2021/04/04 00:15:03;;;;;;;;;;;;;;;-1.33;92.34;94271.81;5095354;28;20359;-77
2021/04/04 00:17:29;;;;;;;;;;;;;;;-1.42;93.02;94268.19;5095469;28;19924;-76
2021/04/04 00:19:55;;;;;;;;;;;;;;;-1.49;93.59;94262.69;5095185;28;19965;-77
2021/04/04 00:22:21;;;;;;;;;;;;;;;-1.43;92.76;94266.56;5095201;28;20366;-76
2021/04/04 00:24:47;;;;;;;;;;;;;;;-1.49;93.70;94272.94;5094999;28;19989;-76
2021/04/04 00:27:15;;;;;;;;;;;;;;;-1.59;93.85;94266.88;5094951;28;20374;-76
2021/04/04 00:29:44;;;;;;;;;;;;;;;-1.57;92.87;94259.91;5094844;28;19920;-76
2021/04/04 00:32:10;;;;;;;;;;;;;;;-1.69;94.19;94271.88;5094323;28;20006;-76
2021/04/04 00:34:35;;;;;;;;;;;;;;;-1.72;95.44;94261.06;5095006;28;20317;-76
2021/04/04 00:37:01;;;;;;;;;;;;;;;-1.89;96.80;94270.78;5094891;28;19924;-76
2021/04/04 00:39:28;;;;;;;;;;;;;;;-1.95;97.31;94270.41;5094790;28;19927;-76
2021/04/04 00:41:54;;;;;;;;;;;;;;;-1.96;98.14;94269.63;5094711;28;19927;-76
2021/04/04 00:44:20;;;;;;;;;;;;;;;-1.96;98.13;94274.72;5094942;28;20014;-76
2021/04/04 00:46:46;;;;;;;;;;;;;;;-1.93;97.97;94273.66;5094740;28;19926;-76
2021/04/04 00:49:13;;;;;;;;;;;;;;;-1.94;97.85;94272.06;5094689;28;20419;-76
2021/04/04 00:51:39;;;;;;;;;;;;;;;-1.72;96.83;94266.16;5094575;28;20014;-76
2021/04/04 00:54:05;;;;;;;;;;;;;;;-1.92;97.46;94270.19;5094440;28;19974;-77
2021/04/04 00:56:32;;;;;;;;;;;;;;;-1.87;97.59;94268.91;5094391;28;19928;-76
2021/04/04 00:58:58;;;;;;;;;;;;;;;-1.94;98.18;94265.19;5094593;28;20313;-76
2021/04/04 01:01:25;;;;;;;;;;;;;;;-2.00;97.83;94260.53;5094286;28;19929;-76
2021/04/04 01:03:51;;;;;;;;;;;;;;;-2.14;98.75;94265.84;5094442;28;19973;-76
2021/04/04 01:06:17;;;;;;;;;;;;;;;-2.21;97.86;94255.25;5094504;28;20301;-76
2021/04/04 01:08:43;;;;;;;;;;;;;;;-2.16;98.71;94263.38;5094115;28;19920;-76
2021/04/04 01:11:09;;;;;;;;;;;;;;;-2.22;97.69;94265.56;5094102;28;20028;-76
2021/04/04 01:13:40;;;;;;;;;;;;;;;-2.20;99.62;94258.59;5094121;28;20385;-76
2021/04/04 01:16:14;;;;;;;;;;;;;;;-2.20;97.91;94258.59;5094063;28;19920;-76
2021/04/04 01:18:41;;;;;;;;;;;;;;;-2.26;97.69;94258.13;5094138;28;19920;-76
2021/04/04 01:21:12;;;;;;;;;;;;;;;-2.18;98.08;94255.03;5093971;28;19920;-76
2021/04/04 01:23:39;;;;;;;;;;;;;;;-2.09;97.63;94253.53;5094261;28;20353;-76
2021/04/04 01:26:09;;;;;;;;;;;;;;;-2.17;97.34;94254.06;5093915;28;19923;-76
2021/04/04 01:28:38;;;;;;;;;;;;;;;-2.09;97.26;94262.00;5094029;28;19920;-75
2021/04/04 01:31:05;;;;;;;;;;;;;;;-1.85;94.73;94245.78;5093663;28;19920;-77
2021/04/04 01:33:32;;;;;;;;;;;;;;;-1.79;92.94;94254.78;5093937;28;19941;-74
2021/04/04 01:36:00;;;;;;;;;;;;;;;-1.60;93.13;94249.91;5093669;28;20363;-76
2021/04/04 01:38:30;;;;;;;;;;;;;;;-1.63;91.88;94247.59;5093933;28;19920;-76
2021/04/04 01:40:57;;;;;;;;;;;;;;;-1.71;93.20;94248.16;5093509;28;19927;-76
2021/04/04 01:43:24;;;;;;;;;;;;;;;-1.64;92.59;94251.06;5093706;28;19919;-74
2021/04/04 01:45:51;;;;;;;;;;;;;;;-1.74;91.85;94247.56;5093727;28;19919;-75
2021/04/04 01:48:18;;;;;;;;;;;;;;;-1.87;92.86;94247.66;5093710;28;19920;-75
2021/04/04 01:50:45;;;;;;;;;;;;;;;-2.06;94.50;94253.31;5093510;28;19927;-75
2021/04/04 01:53:14;;;;;;;;;;;;;;;-2.16;95.20;94247.25;5093685;28;20370;-76
2021/04/04 01:55:40;;;;;;;;;;;;;;;-2.18;94.67;94244.78;5093603;28;19920;-76
2021/04/04 01:58:07;;;;;;;;;;;;;;;-2.29;95.68;94257.53;5093639;28;20259;-75
2021/04/04 02:00:34;;;;;;;;;;;;;;;-2.29;95.67;94243.00;5093370;28;19926;-75
2021/04/04 02:03:03;;;;;;;;;;;;;;;-2.40;95.86;94245.50;5093326;28;19920;-77
2021/04/04 02:05:32;;;;;;;;;;;;;;;-2.53;99.01;94252.41;5093611;28;19924;-74
2021/04/04 02:07:58;;;;;;;;;;;;;;;-2.65;99.88;94244.72;5093232;28;20336;-76
2021/04/04 02:10:25;;;;;;;;;;;;;;;-2.64;100.00;94259.13;5093409;28;19927;-75
2021/04/04 02:12:52;;;;;;;;;;;;;;;-2.62;100.00;94247.03;5093401;28;19974;-75
2021/04/04 02:15:19;;;;;;;;;;;;;;;-2.63;100.00;94247.97;5096649;28;20348;-76
2021/04/04 02:17:47;;;;;;;;;;;;;;;-2.62;100.00;94243.69;5097488;28;19931;-76
2021/04/04 02:20:15;;;;;;;;;;;;;;;-2.71;100.00;94242.59;5097486;28;19946;-76
2021/04/04 02:22:42;;;;;;;;;;;;;;;-2.86;100.00;94241.13;5097014;28;19920;-75
2021/04/04 02:25:12;;;;;;;;;;;;;;;-2.98;100.00;94240.25;5097381;28;19927;-74
2021/04/04 02:27:39;;;;;;;;;;;;;;;-2.90;100.00;94247.34;5097452;28;19920;-76
2021/04/04 02:30:06;;;;;;;;;;;;;;;-3.02;100.00;94234.50;5097196;28;19972;-74
2021/04/04 02:32:33;;;;;;;;;;;;;;;-3.13;100.00;94244.69;5097080;28;19923;-76
2021/04/04 02:35:02;;;;;;;;;;;;;;;-3.26;100.00;94241.34;5097522;28;20351;-75
2021/04/04 02:37:29;;;;;;;;;;;;;;;-3.38;100.00;94236.16;5097284;28;19924;-76
2021/04/04 02:39:56;;;;;;;;;;;;;;;-3.43;100.00;94245.84;5096906;28;20315;-76
2021/04/04 02:42:24;;;;;;;;;;;;;;;-3.19;100.00;94247.66;5097054;28;19927;-76
2021/04/04 02:44:51;;;;;;;;;;;;;;;-2.70;100.00;94243.41;5096975;28;20418;-76
2021/04/04 02:47:20;;;;;;;;;;;;;;;-2.54;100.00;94241.41;5097207;28;19920;-76
2021/04/04 02:49:48;;;;;;;;;;;;;;;-2.36;100.00;94241.00;5096837;28;20385;-76
2021/04/04 02:52:16;;;;;;;;;;;;;;;-2.37;100.00;94245.28;5097050;28;20014;-76
2021/04/04 02:54:43;;;;;;;;;;;;;;;-2.36;100.00;94236.72;5096882;28;19927;-76
2021/04/04 02:57:10;;;;;;;;;;;;;;;-2.42;100.00;94229.47;5096689;28;19963;-76
2021/04/04 02:59:38;;;;;;;;;;;;;;;-2.32;100.00;94234.75;5096618;28;19920;-76
2021/04/04 03:02:08;;;;;;;;;;;;;;;-2.42;100.00;94226.91;5096846;28;19920;-76
2021/04/04 03:04:36;;;;;;;;;;;;;;;-2.57;100.00;94222.91;5096778;28;20018;-76
2021/04/04 03:07:03;;;;;;;;;;;;;;;-2.54;100.00;94230.38;5096657;28;19920;-76
2021/04/04 03:09:31;;;;;;;;;;;;;;;-2.45;100.00;94227.97;5096591;28;19920;-76
2021/04/04 03:11:59;;;;;;;;;;;;;;;-2.50;100.00;94231.75;5096516;28;20384;-76
2021/04/04 03:14:26;;;;;;;;;;;;;;;-2.55;100.00;94229.53;5096402;28;19927;-76
2021/04/04 03:16:53;;;;;;;;;;;;;;;-2.61;100.00;94230.78;5096595;28;19920;-75
2021/04/04 03:19:19;;;;;;;;;;;;;;;-2.54;100.00;94225.25;5096331;28;19920;-75
2021/04/04 03:21:48;;;;;;;;;;;;;;;-2.43;100.00;94226.09;5096418;28;20030;-76
2021/04/04 03:24:16;;;;;;;;;;;;;;;-2.41;100.00;94228.56;5096381;28;19927;-78
2021/04/04 03:26:51;;;;;;;;;;;;;;;-2.30;100.00;94228.59;5096450;28;19920;-77
2021/04/04 03:29:18;;;;;;;;;;;;;;;-2.43;100.00;94225.31;5096242;28;19920;-76
2021/04/04 03:31:44;;;;;;;;;;;;;;;-2.50;100.00;94227.47;5095794;28;19920;-77
2021/04/04 03:34:10;;;;;;;;;;;;;;;-2.51;100.00;94227.59;5096226;28;19965;-77
2021/04/04 03:36:40;;;;;;;;;;;;;;;-2.50;100.00;94230.03;5095879;28;19920;-77
2021/04/04 03:39:06;;;;;;;;;;;;;;;-2.56;100.00;94232.22;5096126;28;19946;-75
2021/04/04 03:41:34;;;;;;;;;;;;;;;-2.61;100.00;94235.09;5096144;28;19920;-74
2021/04/04 03:44:01;;;;;;;;;;;;;;;-2.70;100.00;94235.75;5095768;28;19927;-75
2021/04/04 03:46:31;;;;;;;;;;;;;;;-2.84;100.00;94232.41;5095864;28;19924;-76
2021/04/04 03:48:57;;;;;;;;;;;;;;;-2.79;100.00;94235.47;5095930;28;19927;-76
2021/04/04 03:51:24;;;;;;;;;;;;;;;-2.76;100.00;94236.16;5095968;28;19950;-74
2021/04/04 03:53:50;;;;;;;;;;;;;;;-2.85;100.00;94235.06;5095973;28;19963;-76
2021/04/04 03:56:19;;;;;;;;;;;;;;;-2.83;100.00;94238.34;5095873;28;19920;-77
2021/04/04 03:58:46;;;;;;;;;;;;;;;-2.84;100.00;94236.72;5095652;28;20406;-75
2021/04/04 04:01:13;;;;;;;;;;;;;;;-2.82;100.00;94237.41;5095359;28;19920;-76
2021/04/04 04:03:42;;;;;;;;;;;;;;;-2.93;100.00;94242.47;5095308;28;19920;-75
2021/04/04 04:06:09;;;;;;;;;;;;;;;-2.90;100.00;94242.25;5095450;28;20014;-76
2021/04/04 04:08:38;;;;;;;;;;;;;;;-2.85;100.00;94246.13;5095663;28;19988;-76
2021/04/04 04:11:08;;;;;;;;;;;;;;;-2.90;100.00;94247.34;5095288;28;20435;-76
2021/04/04 04:13:44;;;;;;;;;;;;;;;-3.13;100.00;94246.41;5095397;28;19934;-76
2021/04/04 04:16:10;;;;;;;;;;;;;;;-3.35;100.00;94251.25;5095259;28;19920;-76
2021/04/04 04:18:39;;;;;;;;;;;;;;;-3.55;100.00;94251.78;5095164;28;20366;-76
2021/04/04 04:21:06;;;;;;;;;;;;;;;-3.65;100.00;94251.56;5095363;28;19920;-76
2021/04/04 04:23:33;;;;;;;;;;;;;;;-3.79;100.00;94249.94;5094998;28;19924;-76
2021/04/04 04:25:59;;;;;;;;;;;;;;;-3.86;100.00;94246.19;5095215;28;19924;-76
2021/04/04 04:28:26;;;;;;;;;;;;;;;-3.92;100.00;94252.50;5094466;28;19920;-76
2021/04/04 04:30:53;;;;;;;;;;;;;;;-4.02;100.00;94237.91;5094696;28;20015;-76
2021/04/04 04:33:20;;;;;;;;;;;;;;;-4.16;100.00;94242.19;5094930;28;20436;-76
2021/04/04 04:35:48;;;;;;;;;;;;;;;-4.24;100.00;94233.41;5095059;28;19920;-76
2021/04/04 04:38:15;;;;;;;;;;;;;;;-4.02;100.00;94240.47;5094265;28;20014;-76
2021/04/04 04:40:44;;;;;;;;;;;;;;;-3.69;100.00;94234.03;5094626;28;19920;-76
2021/04/04 04:43:12;;;;;;;;;;;;;;;-3.90;100.00;94234.53;5094813;28;20340;-76
2021/04/04 04:45:39;;;;;;;;;;;;;;;-4.07;100.00;94238.19;5094570;28;19927;-76
2021/04/04 04:48:06;;;;;;;;;;;;;;;-3.86;100.00;94235.97;5094890;28;19920;-76
2021/04/04 04:50:33;;;;;;;;;;;;;;;-3.63;100.00;94238.72;5094725;28;19927;-76
2021/04/04 04:52:59;;;;;;;;;;;;;;;-3.67;100.00;94238.09;5094642;28;19920;-76
2021/04/04 04:55:29;;;;;;;;;;;;;;;-3.67;100.00;94237.31;5094581;28;19920;-76
2021/04/04 04:57:55;;;;;;;;;;;;;;;-3.67;100.00;94232.19;5094479;28;19920;-76
2021/04/04 05:00:22;;;;;;;;;;;;;;;-3.67;100.00;94234.75;5094368;28;20285;-76
2021/04/04 05:02:47;;;;;;;;;;;;;;;-3.54;100.00;94233.81;5094322;28;19923;-77
2021/04/04 05:05:14;;;;;;;;;;;;;;;-3.53;100.00;94237.16;5094420;28;19970;-76
2021/04/04 05:07:40;;;;;;;;;;;;;;;-3.46;100.00;94238.41;5094423;28;19920;-76
2021/04/04 05:10:08;;;;;;;;;;;;;;;-3.44;100.00;94233.19;5094253;28;19920;-76
2021/04/04 05:12:36;;;;;;;;;;;;;;;-3.44;100.00;94231.44;5094102;28;20436;-76
2021/04/04 05:15:02;;;;;;;;;;;;;;;-3.47;100.00;94231.66;5094316;28;19920;-76
2021/04/04 05:17:31;;;;;;;;;;;;;;;-3.53;100.00;94232.91;5094241;28;19997;-76
2021/04/04 05:19:57;;;;;;;;;;;;;;;-3.39;100.00;94233.69;5093931;28;19965;-76
2021/04/04 05:22:25;;;;;;;;;;;;;;;-3.25;100.00;94227.63;5094112;28;19927;-76
2021/04/04 05:24:50;;;;;;;;;;;;;;;-3.09;100.00;94228.22;5093939;28;20340;-76
2021/04/04 05:27:19;;;;;;;;;;;;;;;-3.02;100.00;94224.31;5093908;28;19920;-76
2021/04/04 05:29:45;;;;;;;;;;;;;;;-3.00;100.00;94227.59;5094116;28;20321;-76
2021/04/04 05:32:11;;;;;;;;;;;;;;;-2.97;100.00;94224.78;5093687;28;19919;-76
2021/04/04 05:34:38;;;;;;;;;;;;;;;-2.86;100.00;94229.16;5094067;28;20003;-76
2021/04/04 05:37:05;;;;;;;;;;;;;;;-2.90;100.00;94217.50;5093913;28;19920;-76
2021/04/04 05:39:32;;;;;;;;;;;;;;;-2.77;100.00;94227.69;5093654;28;19920;-76
2021/04/04 05:41:59;;;;;;;;;;;;;;;-2.61;100.00;94222.31;5093692;28;19919;-76
2021/04/04 05:44:27;;;;;;;;;;;;;;;-2.56;100.00;94229.66;5093920;28;19920;-76
2021/04/04 05:46:59;;;;;;;;;;;;;;;-2.57;100.00;94238.25;5093709;28;19947;-76
2021/04/04 05:49:31;;;;;;;;;;;;;;;-2.38;100.00;94233.44;5092882;28;19963;-76
2021/04/04 05:52:04;;;;;;;;;;;;;;;-2.26;100.00;94237.66;5093693;28;19920;-76
2021/04/04 05:54:45;;;;;;;;;;;;;;;-2.14;100.00;94235.97;5093840;28;19927;-76
2021/04/04 05:57:12;;;;;;;;;;;;;;;-1.99;100.00;94231.47;5059735;28;19920;-76
2021/04/04 05:59:42;;;;;;;;;;;;;;;-1.94;100.00;94234.50;5093461;28;19920;-76
2021/04/04 06:02:26;;;;;;;;;;;;;;;-1.80;100.00;94235.22;5093494;28;19920;-75
2021/04/04 06:05:01;;;;;;;;;;;;;;;-1.66;100.00;94229.09;5093460;28;19935;-76
2021/04/04 06:07:46;;;;;;;;;;;;;;;-1.57;100.00;94226.63;5093593;28;20370;-76
2021/04/04 06:10:15;;;;;;;;;;;;;;;-1.48;100.00;94235.38;5093260;28;19920;-76
2021/04/04 06:12:53;;;;;;;;;;;;;;;-1.35;100.00;94222.44;5093304;28;20363;-75
2021/04/04 06:15:23;;;;;;;;;;;;;;;-1.30;100.00;94222.91;5093477;28;20066;-74
2021/04/04 06:17:55;;;;;;;;;;;;;;;-1.15;100.00;94231.16;5093477;28;19920;-76
2021/04/04 06:20:31;;;;;;;;;;;;;;;-0.88;100.00;94215.41;5093418;28;19927;-77
2021/04/04 06:23:06;;;;;;;;;;;;;;;-0.54;100.00;94214.50;5093403;28;19920;-76
2021/04/04 06:25:41;;;;;;;;;;;;;;;0.02;100.00;94210.84;5093168;28;19971;-76
2021/04/04 06:28:10;;;;;;;;;;;;;;;0.36;98.67;94217.38;5093164;28;19926;-76
2021/04/04 06:30:49;;;;;;;;;;;;;;;0.62;97.36;94211.03;5093369;28;19989;-76
2021/04/04 06:33:21;;;;;;;;;;;;;;;0.75;95.95;94209.06;5093092;28;19965;-76
2021/04/04 06:35:51;;;;;;;;;;;;;;;0.88;95.32;94216.53;5092505;28;20394;-76
2021/04/04 06:38:29;;;;;;;;;;;;;;;1.23;93.58;94217.84;5093375;28;19924;-76
2021/04/04 06:41:00;;;;;;;;;;;;;;;1.36;93.05;94210.69;5093212;28;19980;-76
2021/04/04 06:43:32;;;;;;;;;;;;;;;1.55;93.01;94212.47;5093263;28;19920;-76
2021/04/04 06:46:11;;;;;;;8.75;3.10;;;;;;;1.67;90.95;94213.97;5091624;28;20775;-78
2021/04/04 06:48:50;;;;;;;13.80;3.27;;;;;;;1.94;90.88;94219.38;5092733;28;20248;-77
2021/04/04 06:51:27;;;;;;;9.47;3.23;;;;;;;2.04;90.29;94220.19;5092527;28;20720;-75
2021/04/04 06:54:05;;;;;;;13.00;3.17;;;;;;;2.34;86.99;94215.78;5092737;28;20288;-77
2021/04/04 06:56:41;;;;;;;6.55;2.00;;;;;;;2.58;85.74;94208.41;5092594;28;20197;-76
2021/04/04 06:59:16;;;;;;;10.00;3.03;;;;;;;2.84;85.04;94205.19;5092787;28;20198;-78
2021/04/04 07:01:55;;;;;;;7.80;2.70;;;;;;;3.02;85.33;94210.41;5096230;28;20229;-75
2021/04/04 07:04:24;;;;;;;;;;;;;;;3.22;84.67;94207.72;5096819;28;20417;-75
2021/04/04 07:06:57;;;;;;;;;;;;;;;3.29;83.32;94204.41;5096701;28;20379;-76
2021/04/04 07:09:34;;;;;;;;;;;;;;;3.45;81.50;94190.06;5096536;28;19924;-76
2021/04/04 07:12:05;;;;;;;;;;;;;;;3.65;81.15;94195.91;5096823;28;19924;-76
2021/04/04 07:14:49;;;;;;;13.98;2.33;;;;;;;3.83;77.23;94196.69;5096680;28;19924;-78
2021/04/04 07:17:25;;;;;;;98.30;37.20;;;;;;;3.97;77.72;94192.75;5096048;28;20197;-77
2021/04/04 07:20:10;;;;;;;10.37;2.63;;;;;;;4.12;78.13;94194.81;5095822;28;20222;-77
2021/04/04 07:23:10;;;;;;;10.03;2.40;;;;;;;4.23;75.63;94200.56;5096116;28;20202;-80
2021/04/04 07:25:42;;;;;;;19.80;2.77;;;;;;;4.33;77.72;94192.69;5095990;28;20202;-77
2021/04/04 07:28:16;;;;;;;8.33;2.80;;;;;;;4.56;72.72;94199.94;5095757;28;20194;-80
2021/04/04 07:30:44;;;;;;;6.13;2.33;;;;;;;4.72;73.39;94196.63;5095933;28;20251;-79
2021/04/04 07:33:30;;;;;;;5.07;2.20;;;;;;;4.79;73.25;94200.22;5095557;28;20252;-80
2021/04/04 07:36:04;;;;;;;5.33;2.33;;;;;;;4.96;71.96;94195.91;5095088;28;20664;-78
2021/04/04 07:38:37;;;;;;;6.47;2.50;;;;;;;5.01;69.73;94201.44;5095486;28;20202;-79
2021/04/04 07:41:09;;;;;;;6.30;1.93;;;;;;;5.07;68.52;94198.25;5095538;28;20233;-78
2021/04/04 07:43:45;;;;;;;8.53;2.30;;;;;;;5.15;68.53;94206.03;5095393;28;20214;-78
2021/04/04 07:46:17;;;;;;;7.60;2.40;;;;;;;5.11;69.26;94204.75;5095512;28;20242;-76
2021/04/04 07:48:53;;;;;;;8.80;2.20;;;;;;;5.18;66.98;94194.56;5095382;28;20660;-78
2021/04/04 07:51:24;;;;;;;8.27;2.70;;;;;;;5.32;66.46;94203.50;5094792;28;20488;-78
2021/04/04 07:53:59;;;;;;;5.73;2.07;;;;;;;5.42;68.29;94203.38;5095420;28;20206;-78
2021/04/04 07:56:31;;;;;;;6.33;2.37;;;;;;;5.51;66.42;94198.06;5095332;28;20197;-78
2021/04/04 07:59:06;;;;;;;7.37;2.57;;;;;;;5.65;65.28;94201.00;5095265;28;20194;-77
2021/04/04 08:01:39;;;;;;;8.67;2.50;;;;;;;5.81;63.56;94200.19;5093767;28;20478;-79
2021/04/04 08:04:11;;;;;;;5.23;2.03;;;;;;;5.77;63.66;94198.91;5095347;28;20205;-77
2021/04/04 08:06:41;;;;;;;6.00;1.80;;;;;;;5.86;62.11;94198.75;5095194;28;20206;-77
2021/04/04 08:09:13;;;;;;;9.30;2.20;;;;;;;5.83;62.10;94200.84;5095035;28;20225;-77
2021/04/04 08:11:49;;;;;;;4.23;2.13;;;;;;;5.88;60.38;94209.75;5093987;28;20739;-77
2021/04/04 08:14:21;;;;;;;5.53;2.20;;;;;;;5.95;60.30;94201.34;5095088;28;20202;-77
2021/04/04 08:16:52;;;;;;;3.40;1.47;;;;;;;6.08;60.91;94202.50;5095072;28;20202;-77
2021/04/04 08:19:19;;;;;;;5.50;1.83;;;;;;;6.15;58.30;94207.06;5094955;28;20198;-76
2021/04/04 08:21:48;;;;;;;8.73;2.57;;;;;;;6.20;58.03;94204.78;5094765;28;20230;-77
2021/04/04 08:24:22;;;;;;;8.47;2.63;;;;;;;6.17;52.66;94213.69;5094609;28;20251;-77
2021/04/04 08:26:52;;;;;;;5.00;1.90;;;;;;;6.08;55.36;94215.47;5094850;28;20198;-78
2021/04/04 08:29:23;;;;;;;7.72;1.95;;;;;;;6.15;56.43;94207.84;5094841;28;20587;-77
2021/04/04 08:31:54;;;;;;;5.23;2.00;;;;;;;6.16;58.20;94214.66;5094258;28;20233;-77
2021/04/04 08:34:24;;;;;;;7.00;2.10;;;;;;;6.43;62.77;94204.94;5094353;28;20454;-76
2021/04/04 08:36:56;;;;;;;5.33;1.80;;;;;;;6.53;56.23;94215.09;5094364;28;20263;-78
2021/04/04 08:39:27;;;;;;;5.67;2.03;;;;;;;6.57;54.91;94209.44;5093816;28;20717;-76
2021/04/04 08:41:55;;;;;;;5.03;1.80;;;;;;;6.66;54.62;94205.84;5094555;28;20228;-76
2021/04/04 08:44:25;;;;;;;8.33;2.80;;;;;;;6.59;60.88;94210.06;5094426;28;20206;-77
2021/04/04 08:46:53;;;;;;;;;;;;;;;6.69;59.42;94209.09;5094280;28;20440;-77
2021/04/04 08:49:21;;;;;;;;;;;;;;;6.77;56.72;94201.28;5094817;28;19920;-76
2021/04/04 08:51:50;;;;;;;;;;;;;;;6.76;61.32;94199.66;5094860;28;19924;-76
2021/04/04 08:54:19;;;;;;;;;;;;;;;6.51;64.31;94197.09;5094763;28;19973;-77
2021/04/04 08:56:46;;;;;;;;;;;;;;;6.53;64.61;94202.13;5094548;28;19927;-76
2021/04/04 08:59:12;;;;;;;;;;;;;;;6.58;60.13;94192.91;5094482;28;20378;-77
2021/04/04 09:01:39;;;;;;;;;;;;;;;6.73;57.58;94195.63;5094367;28;19927;-76
2021/04/04 09:04:06;;;;;;;;;;;;;;;6.59;56.66;94194.50;5094585;28;19920;-76
2021/04/04 09:06:36;;;;;;;;;;;;;;;6.56;55.67;94197.44;5094490;28;19920;-76
2021/04/04 09:09:04;;;;;;;;;;;;;;;6.49;55.75;94193.88;5094457;28;19920;-76
2021/04/04 09:11:31;;;;;;;;;;;;;;;6.59;60.17;94194.50;5094333;28;19920;-76
2021/04/04 09:13:58;;;;;;;;;;;;;;;6.57;61.57;94198.25;5094324;28;19920;-76
2021/04/04 09:16:24;;;;;;;;;;;;;;;6.84;58.05;94197.03;5094124;28;20294;-76
2021/04/04 09:18:51;;;;;;;;;;;;;;;6.67;59.51;94202.25;5094404;28;20041;-75
2021/04/04 09:21:18;;;;;;;;;;;;;;;6.74;61.02;94199.81;5094091;28;19920;-76
2021/04/04 09:23:45;;;;;;;;;;;;;;;6.77;62.44;94196.91;5094019;28;19927;-77
2021/04/04 09:26:14;;;;;;;;;;;;;;;6.78;61.06;94202.91;5094086;28;19927;-76
2021/04/04 09:28:41;;;;;;;;;;;;;;;6.96;58.91;94206.09;5093973;28;19943;-76
2021/04/04 09:31:16;;;;;;;;;;;;;;;6.87;61.18;94201.91;5093643;28;20015;-76
2021/04/04 09:33:43;;;;;;;;;;;;;;;7.01;61.46;94198.63;5094192;28;19920;-77
2021/04/04 09:36:08;;;;;;;;;;;;;;;6.99;57.86;94197.16;5093989;28;19926;-76
2021/04/04 09:38:36;;;;;;;;;;;;;;;6.90;61.39;94193.78;5093773;28;19920;-76
2021/04/04 09:41:02;;;;;;;;;;;;;;;7.01;61.82;94193.44;5093699;28;20396;-75
2021/04/04 09:43:28;;;;;;;;;;;;;;;7.18;58.74;94195.97;5093728;28;19920;-75
2021/04/04 09:46:03;;;;;;;;;;;;;;;7.26;59.46;94200.28;5093962;28;19955;-77
2021/04/04 09:48:35;;;;;;;;;;;;;;;7.34;60.53;94187.28;5093833;28;20287;-76
2021/04/04 09:51:05;;;;;;;;;;;;;;;7.23;57.77;94191.06;5093791;28;20031;-75
2021/04/04 09:53:37;;;;;;;;;;;;;;;7.25;56.37;94191.69;5093554;28;19928;-76
2021/04/04 09:56:10;;;;;;;;;;;;;;;7.17;57.86;94191.75;5093511;28;19931;-76
2021/04/04 09:58:40;;;;;;;;;;;;;;;7.21;57.96;94183.44;5093584;28;19920;-76
2021/04/04 10:01:17;;;;;;;;;;;;;;;7.17;59.45;94179.56;5093580;28;19936;-76
2021/04/04 10:03:54;;;;;;;;;;;;;;;7.27;57.62;94186.34;5093525;28;19920;-76
2021/04/04 10:06:20;;;;;;;;;;;;;;;7.33;58.37;94180.47;5093432;28;19965;-76
2021/04/04 10:08:52;;;;;;;;;;;;;;;7.36;59.19;94180.94;5093589;28;19920;-76
2021/04/04 10:11:19;;;;;;;;;;;;;;;7.31;59.13;94178.03;5093570;28;19969;-76
2021/04/04 10:13:45;;;;;;;;;;;;;;;7.33;58.86;94178.69;5093474;28;19935;-76
2021/04/04 10:16:18;;;;;;;;;;;;;;;7.39;58.90;94180.59;5093409;28;19920;-76
2021/04/04 10:18:59;;;;;;;;;;;;;;;7.57;60.43;94185.50;5093377;28;19977;-76
2021/04/04 10:21:24;;;;;;;;;;;;;;;7.61;56.73;94180.81;5093236;28;20381;-76
2021/04/04 10:23:50;;;;;;;;;;;;;;;7.45;55.84;94188.69;5093416;28;19920;-76
2021/04/04 10:26:19;;;;;;;;;;;;;;;7.41;56.98;94173.44;5093214;28;20016;-77
2021/04/04 10:28:46;;;;;;;;;;;;;;;7.29;57.62;94174.78;5093208;28;19960;-77
2021/04/04 10:31:12;;;;;;;;;;;;;;;7.66;56.60;94181.09;5085911;28;19939;-77
2021/04/04 10:33:39;;;;;;;;;;;;;;;7.54;54.67;94167.69;5092893;28;20282;-77
2021/04/04 10:36:13;;;;;;;;;;;;;;;7.62;55.40;94164.22;5095651;28;19920;-77
2021/04/04 10:38:39;;;;;;;;;;;;;;;7.56;54.84;94167.50;5097211;28;20325;-76
2021/04/04 10:41:05;;;;;;;;;;;;;;;7.81;57.14;94156.94;5097139;28;19946;-76
2021/04/04 10:43:35;;;;;;;;;;;;;;;7.95;56.45;94164.78;5097010;28;19927;-76
2021/04/04 10:46:02;;;;;;;;;;;;;;;7.70;53.03;94160.75;5096868;28;19942;-77
2021/04/04 10:48:29;;;;;;;;;;;;;;;7.64;53.94;94154.44;5096546;28;19965;-77
2021/04/04 10:50:56;;;;;;;;;;;;;;;7.76;53.94;94160.06;5097121;28;19926;-78
2021/04/04 10:53:22;;;;;;;;;;;;;;;7.80;53.27;94150.16;5096809;28;19927;-76
2021/04/04 10:55:49;;;;;;;;;;;;;;;7.71;52.79;94158.00;5096684;28;19920;-76
2021/04/04 10:58:15;;;;;;;;;;;;;;;7.83;52.84;94145.41;5096778;28;19924;-76
2021/04/04 11:00:42;;;;;;;;;;;;;;;7.97;53.12;94146.41;5097055;28;19987;-77
2021/04/04 11:03:08;;;;;;;;;;;;;;;8.03;53.41;94143.13;5096606;28;20352;-77
2021/04/04 11:05:34;;;;;;;;;;;;;;;7.99;53.63;94134.03;5096592;28;19924;-77
2021/04/04 11:08:02;;;;;;;;;;;;;;;8.19;52.53;94139.56;5096449;28;19920;-76
2021/04/04 11:10:28;;;;;;;;;;;;;;;8.29;53.08;94142.75;5096741;28;19924;-75
2021/04/04 11:12:55;;;;;;;;;;;;;;;8.40;53.50;94138.09;5096491;28;19928;-77
2021/04/04 11:15:21;;;;;;;;;;;;;;;8.38;53.31;94137.47;5096343;28;20374;-76
2021/04/04 11:17:50;;;;;;;;;;;;;;;8.46;52.22;94130.41;5096785;28;19924;-75
2021/04/04 11:20:17;;;;;;;;;;;;;;;8.38;53.38;94130.47;5096138;28;20267;-76
2021/04/04 11:22:43;;;;;;;;;;;;;;;8.32;51.77;94123.34;5096429;28;19924;-76
2021/04/04 11:25:14;;;;;;;;;;;;;;;8.59;51.40;94128.97;5096298;28;19920;-76
2021/04/04 11:27:44;;;;;;;;;;;;;;;8.43;52.83;94125.56;5096173;28;19927;-77
2021/04/04 11:30:14;;;;;;;;;;;;;;;8.43;53.64;94127.34;5096435;28;19935;-76
2021/04/04 11:32:41;;;;;;;;;;;;;;;8.58;54.86;94122.16;5096148;28;19959;-76
2021/04/04 11:35:08;;;;;;;;;;;;;;;8.54;52.76;94128.69;5096250;28;19924;-76
2021/04/04 11:37:36;;;;;;;;;;;;;;;8.68;50.76;94123.50;5096149;28;19920;-76
2021/04/04 11:40:23;;;;;;;;;;;;;;;8.67;52.79;94116.66;5095817;28;19981;-76
2021/04/04 11:42:49;;;;;;;;;;;;;;;8.79;52.00;94121.41;5096272;28;19926;-76
2021/04/04 11:45:32;;;;;;;;;;;;;;;8.72;52.17;94123.13;5095846;28;19920;-75
2021/04/04 11:48:20;;;;;;;;;;;;;;;8.77;51.48;94124.19;5094904;28;20020;-75
2021/04/04 11:50:46;;;;;;;;;;;;;;;8.75;52.67;94117.59;5095544;28;19928;-76
2021/04/04 11:53:27;;;;;;;;;;;;;;;9.04;52.96;94120.16;5095885;28;20370;-74
2021/04/04 11:55:53;;;;;;;;;;;;;;;8.97;51.56;94123.66;5095524;28;20275;-75
2021/04/04 11:58:19;;;;;;;;;;;;;;;8.94;51.35;94111.78;5095694;28;20019;-76
2021/04/04 12:00:45;;;;;;;;;;;;;;;9.06;52.27;94109.56;5095408;28;19971;-76
2021/04/04 12:03:11;;;;;;;;;;;;;;;9.06;52.16;94096.53;5095563;28;19920;-76
2021/04/04 12:05:37;;;;;;;;;;;;;;;9.06;52.13;94097.34;5095483;28;19920;-76
2021/04/04 12:08:04;;;;;;;;;;;;;;;8.91;50.83;94100.94;5095375;28;20313;-76
2021/04/04 12:10:31;;;;;;;;;;;;;;;8.70;50.92;94094.69;5095176;28;20359;-76
2021/04/04 12:12:58;;;;;;;;;;;;;;;8.90;53.96;94089.72;5095447;28;19927;-76
2021/04/04 12:15:24;;;;;;;;;;;;;;;9.00;50.60;94112.88;5095261;28;19931;-75
2021/04/04 12:17:52;;;;;;;;;;;;;;;9.10;49.42;94084.75;5095326;28;19926;-76
2021/04/04 12:20:19;;;;;;;;;;;;;;;9.03;50.58;94094.28;5095285;28;19926;-75
2021/04/04 12:22:46;;;;;;;;;;;;;;;9.09;49.43;94101.34;5095213;28;19942;-75
2021/04/04 12:25:13;;;;;;;;;;;;;;;8.96;49.59;94098.59;5095066;28;20371;-75
2021/04/04 12:27:40;;;;;;;;;;;;;;;9.01;49.94;94086.66;5094953;28;20297;-76
2021/04/04 12:30:20;;;;;;;;;;;;;;;9.10;49.95;94082.13;5095049;28;19920;-76
2021/04/04 12:32:48;;;;;;;;;;;;;;;9.28;49.00;94079.13;5094733;28;19924;-76
2021/04/04 12:35:21;;;;;;;;;;;;;;;9.25;49.49;94071.69;5094796;28;20375;-75
2021/04/04 12:37:47;;;;;;;;;;;;;;;9.40;49.93;94066.41;5095017;28;19920;-76
2021/04/04 12:40:13;;;;;;;;;;;;;;;9.33;48.91;94062.94;5094273;28;19927;-76
2021/04/04 12:42:39;;;;;;;;;;;;;;;9.38;50.55;94063.19;5094724;28;19927;-76
2021/04/04 12:45:06;;;;;;;;;;;;;;;9.79;50.93;94058.16;5094733;28;20363;-76
2021/04/04 12:47:34;;;;;;;;;;;;;;;9.94;50.13;94060.69;5094464;28;19919;-76